Time;durP1;ratioP1;P1;durP2;ratioP2;P2;SDS_P1;SDS_P2;PMS_P1;PMS_P2;Temp;Humidity;BMP_temperature;BMP_pressure;BME280_temperature;BME280_humidity;BME280_pressure;Samples;Min_cycle;Max_cycle;Signal;HPM_P1;HPM_P2
2021/03/30 00:02:07;;;;;;;10.38;6.90;;;;;;;8.26;100.00;102945.53;5034740;28;20064;-61
2021/03/30 00:04:33;;;;;;;10.52;7.75;;;;;;;8.26;100.00;102942.84;5030155;28;20177;-60
2021/03/30 00:07:00;;;;;;;11.07;6.90;;;;;;;8.24;100.00;102932.19;5031408;28;21396;-61
2021/03/30 00:09:26;;;;;;;12.98;6.97;;;;;;;8.26;99.86;102942.84;5033637;28;20053;-60
2021/03/30 00:11:52;;;;;;;13.90;7.10;;;;;;;8.28;99.53;102940.94;5031018;28;20092;-61
2021/03/30 00:14:18;;;;;;;11.65;7.28;;;;;;;8.21;99.20;102944.84;5024075;28;20059;-61
2021/03/30 00:16:44;;;;;;;15.88;7.57;;;;;;;8.17;100.00;102944.13;5029347;28;20055;-59
2021/03/30 00:19:10;;;;;;;17.05;7.22;;;;;;;8.15;100.00;102947.81;5026931;28;20048;-60
2021/03/30 00:21:36;;;;;;;16.20;7.30;;;;;;;8.06;100.00;102949.09;5025866;28;20563;-61
2021/03/30 00:24:04;;;;;;;16.83;7.57;;;;;;;7.98;100.00;102945.88;5025103;28;20080;-60
2021/03/30 00:26:34;;;;;;;14.40;7.50;;;;;;;8.08;100.00;102941.84;5024795;28;20447;-60
2021/03/30 00:29:00;;;;;;;9.88;6.95;;;;;;;7.97;100.00;102942.31;5024068;28;20049;-61
2021/03/30 00:31:26;;;;;;;11.27;6.93;;;;;;;7.93;100.00;102940.72;5027597;28;20797;-60
2021/03/30 00:33:52;;;;;;;10.65;7.13;;;;;;;7.87;100.00;102943.66;5022275;28;20861;-60
2021/03/30 00:36:18;;;;;;;13.45;7.43;;;;;;;7.70;100.00;102939.91;5035978;28;20487;-61
2021/03/30 00:38:44;;;;;;;11.80;7.13;;;;;;;7.59;100.00;102944.00;5028061;28;20548;-61
2021/03/30 00:41:11;;;;;;;14.07;8.18;;;;;;;7.56;100.00;102945.00;5031624;28;20118;-61
2021/03/30 00:43:37;;;;;;;11.93;6.93;;;;;;;7.45;100.00;102957.94;5028833;28;20056;-60
2021/03/30 00:46:12;;;;;;;13.68;7.57;;;;;;;7.31;100.00;102954.03;5026247;28;21443;-60
2021/03/30 00:48:39;;;;;;;11.35;7.25;;;;;;;7.24;100.00;102957.91;5035486;28;20050;-60
2021/03/30 00:51:05;;;;;;;10.85;7.05;;;;;;;7.38;100.00;102952.00;5029742;28;20052;-61
2021/03/30 00:53:31;;;;;;;11.63;6.97;;;;;;;7.60;100.00;102954.66;5036015;28;20075;-61
2021/03/30 00:55:58;;;;;;;13.73;6.88;;;;;;;7.58;100.00;102956.50;5035041;28;20059;-61
2021/03/30 00:58:24;;;;;;;15.95;7.72;;;;;;;7.49;100.00;102959.56;5037300;28;20053;-59
2021/03/30 01:00:50;;;;;;;13.93;7.05;;;;;;;7.28;100.00;102956.84;5044866;28;20045;-62
2021/03/30 01:03:16;;;;;;;13.35;6.88;;;;;;;7.29;100.00;102952.38;5038903;28;20611;-60
2021/03/30 01:05:42;;;;;;;15.70;7.93;;;;;;;7.21;100.00;102960.72;5025323;28;20076;-60
2021/03/30 01:08:19;;;;;;;13.00;7.72;;;;;;;7.21;100.00;102958.03;5027300;28;20072;-60
2021/03/30 01:10:52;;;;;;;12.70;7.45;;;;;;;7.15;100.00;102952.94;5025265;28;20114;-61
2021/03/30 01:13:52;;;;;;;14.20;7.63;;;;;;;7.13;100.00;102941.41;5027515;28;20049;-62
2021/03/30 01:16:22;;;;;;;10.95;6.72;;;;;;;7.05;100.00;102947.06;5013982;28;20100;-60
2021/03/30 01:18:55;;;;;;;12.35;8.23;;;;;;;6.94;100.00;102950.19;5032073;28;20067;-61
2021/03/30 01:22:12;;;;;;;15.40;7.32;;;;;;;7.00;100.00;102949.06;5025182;28;20060;-60
2021/03/30 01:24:47;;;;;;;13.05;7.60;;;;;;;6.99;100.00;102948.22;4979207;28;20050;-60
2021/03/30 01:27:30;;;;;;;17.48;7.50;;;;;;;6.93;100.00;102937.72;4983456;28;20054;-60
2021/03/30 01:30:01;;;;;;;14.50;8.00;;;;;;;6.79;100.00;102938.28;5016320;28;20061;-62
2021/03/30 01:32:31;;;;;;;12.13;7.32;;;;;;;6.77;100.00;102931.22;5044919;28;20052;-60
2021/03/30 01:34:58;;;;;;;16.50;8.30;;;;;;;6.57;100.00;102938.25;5043754;28;20562;-62
2021/03/30 01:37:25;;;;;;;15.65;8.07;;;;;;;6.46;100.00;102933.31;5040679;28;20277;-62
2021/03/30 01:39:54;;;;;;;14.27;8.77;;;;;;;6.36;100.00;102944.41;5039128;28;20045;-60
2021/03/30 01:42:23;;;;;;;12.20;8.27;;;;;;;6.24;100.00;102943.03;5039915;28;20183;-61
2021/03/30 01:44:50;;;;;;;16.52;9.20;;;;;;;6.18;100.00;102936.13;5040909;28;20098;-61
2021/03/30 01:47:18;;;;;;;18.27;9.15;;;;;;;6.05;100.00;102937.50;5039753;28;20140;-59
2021/03/30 01:49:45;;;;;;;15.27;8.82;;;;;;;6.00;100.00;102939.47;5037782;28;20099;-60
2021/03/30 01:52:16;;;;;;;16.35;9.35;;;;;;;5.92;100.00;102934.38;5037703;28;20113;-59
2021/03/30 01:54:43;;;;;;;14.82;8.40;;;;;;;5.91;100.00;102933.50;5037924;28;20057;-60
2021/03/30 01:57:11;;;;;;;15.38;8.63;;;;;;;5.92;100.00;102935.25;5045396;28;20083;-59
2021/03/30 01:59:40;;;;;;;19.75;9.30;;;;;;;5.90;100.00;102938.88;5028824;28;20070;-59
2021/03/30 02:02:06;;;;;;;15.15;8.50;;;;;;;5.74;100.00;102927.88;5036417;28;20048;-59
2021/03/30 02:04:34;;;;;;;18.63;9.05;;;;;;;5.79;100.00;102925.91;5032461;28;20055;-61
2021/03/30 02:07:01;;;;;;;14.73;8.80;;;;;;;5.82;100.00;102920.47;5035674;28;20075;-59
2021/03/30 02:09:32;;;;;;;19.05;8.65;;;;;;;5.61;100.00;102928.31;5044733;28;20048;-59
2021/03/30 02:12:01;;;;;;;17.50;9.68;;;;;;;5.58;100.00;102923.06;5038294;28;20049;-59
2021/03/30 02:14:27;;;;;;;12.63;8.88;;;;;;;5.47;100.00;102935.91;5044412;28;20474;-61
2021/03/30 02:16:59;;;;;;;17.35;8.98;;;;;;;5.33;100.00;102928.38;5037569;28;20397;-59
2021/03/30 02:19:29;;;;;;;16.40;9.00;;;;;;;5.28;100.00;102937.44;5042646;28;20135;-59
2021/03/30 02:22:01;;;;;;;13.75;9.43;;;;;;;5.19;100.00;102946.63;5036306;28;21142;-61
2021/03/30 02:24:30;;;;;;;14.73;9.30;;;;;;;5.12;100.00;102951.28;5039600;28;20048;-59
2021/03/30 02:26:58;;;;;;;14.43;8.23;;;;;;;5.03;100.00;102947.09;5044578;28;20580;-59
2021/03/30 02:29:27;;;;;;;18.60;8.50;;;;;;;5.05;100.00;102950.63;5039988;28;20618;-60
2021/03/30 02:31:55;;;;;;;17.65;9.15;;;;;;;4.99;100.00;102945.47;5037615;28;20372;-59
2021/03/30 02:34:28;;;;;;;16.77;9.07;;;;;;;4.98;100.00;102943.72;5041739;28;20179;-59
2021/03/30 02:36:56;;;;;;;14.68;9.00;;;;;;;4.88;100.00;102942.28;5050452;28;20444;-61
2021/03/30 02:39:25;;;;;;;15.85;9.35;;;;;;;4.84;100.00;102938.81;5039764;28;20109;-60
2021/03/30 02:41:54;;;;;;;15.70;9.32;;;;;;;4.79;100.00;102943.44;5038028;28;20556;-59
2021/03/30 02:44:21;;;;;;;18.15;9.25;;;;;;;4.83;100.00;102939.75;5045148;28;20414;-61
2021/03/30 02:46:49;;;;;;;13.95;8.98;;;;;;;4.84;100.00;102935.28;5032853;28;20656;-61
2021/03/30 02:49:16;;;;;;;19.52;9.35;;;;;;;4.79;100.00;102943.44;5038685;28;20055;-61
2021/03/30 02:51:46;;;;;;;12.70;8.80;;;;;;;4.87;100.00;102941.41;5036159;28;20049;-61
2021/03/30 02:54:13;;;;;;;18.25;8.85;;;;;;;4.82;100.00;102939.78;5036885;28;20056;-60
2021/03/30 02:56:39;;;;;;;19.67;8.82;;;;;;;4.96;100.00;102945.59;5036180;28;20357;-59
2021/03/30 02:59:05;;;;;;;15.75;8.63;;;;;;;5.03;100.00;102940.91;5037749;28;20052;-59
2021/03/30 03:01:32;;;;;;;14.52;8.50;;;;;;;5.02;100.00;102950.72;5029053;28;20305;-60
2021/03/30 03:04:00;;;;;;;15.07;8.38;;;;;;;5.16;100.00;102944.06;5036076;28;20053;-61
2021/03/30 03:06:27;;;;;;;13.68;8.60;;;;;;;5.19;100.00;102950.16;5044623;28;20186;-59
2021/03/30 03:08:54;;;;;;;15.32;8.23;;;;;;;5.16;100.00;102944.94;5033553;28;20044;-59
2021/03/30 03:11:21;;;;;;;13.02;8.32;;;;;;;5.16;100.00;102944.06;5041903;28;20468;-59
2021/03/30 03:13:51;;;;;;;17.92;9.10;;;;;;;5.14;100.00;102937.88;5074131;22;20278;-60
2021/03/30 03:16:19;;;;;;;;;;;;;;;4.94;100.00;102941.22;5032048;28;20041;-59
2021/03/30 03:18:46;;;;;;;15.32;8.35;;;;;;;4.76;100.00;102943.53;5022272;28;19983;-59
2021/03/30 03:21:12;;;;;;;19.33;9.88;;;;;;;4.70;100.00;102949.91;5021985;28;20084;-60
2021/03/30 03:23:40;;;;;;;16.73;9.73;;;;;;;4.65;100.00;102948.31;5028783;28;20486;-59
2021/03/30 03:26:06;;;;;;;23.60;9.63;;;;;;;4.50;100.00;102947.81;5014165;28;21436;-60
2021/03/30 03:28:32;;;;;;;14.98;9.48;;;;;;;4.36;100.00;102953.56;5028417;28;20048;-60
2021/03/30 03:31:00;;;;;;;18.20;9.85;;;;;;;4.37;100.00;102949.09;5026887;28;20048;-61
2021/03/30 03:33:28;;;;;;;15.15;9.40;;;;;;;4.29;100.00;102951.13;5025561;28;20061;-61
2021/03/30 03:36:08;;;;;;;18.95;9.18;;;;;;;4.31;100.00;102962.63;5025357;28;20122;-59
2021/03/30 03:38:34;;;;;;;17.42;9.63;;;;;;;4.22;100.00;102955.75;5026799;28;20056;-61
2021/03/30 03:41:00;;;;;;;16.95;9.05;;;;;;;4.26;100.00;102954.75;5022431;28;20322;-62
2021/03/30 03:43:26;;;;;;;17.50;10.45;;;;;;;4.28;100.00;102944.91;5020201;28;20505;-60
2021/03/30 03:45:52;;;;;;;18.42;9.45;;;;;;;4.31;100.00;102952.81;5022449;28;20183;-61
2021/03/30 03:48:18;;;;;;;22.27;10.02;;;;;;;4.23;100.00;102954.84;5029318;28;20135;-60
2021/03/30 03:50:44;;;;;;;16.65;9.63;;;;;;;4.20;100.00;102954.94;5026328;28;20410;-60
2021/03/30 03:53:13;;;;;;;18.40;10.02;;;;;;;4.20;100.00;102950.47;5025903;28;20049;-60
2021/03/30 03:55:45;;;;;;;18.90;10.23;;;;;;;4.15;100.00;102951.50;5020276;28;20121;-60
2021/03/30 03:58:14;;;;;;;14.93;10.00;;;;;;;4.14;100.00;102953.31;5025121;28;20409;-60
2021/03/30 04:00:41;;;;;;;18.17;10.68;;;;;;;4.04;100.00;102954.47;5024014;28;20060;-60
2021/03/30 04:03:14;;;;;;;17.88;10.32;;;;;;;4.11;100.00;102956.06;5024848;28;20049;-60
2021/03/30 04:05:47;;;;;;;22.13;11.63;;;;;;;4.19;100.00;102951.38;5023696;28;20065;-60
2021/03/30 04:08:15;;;;;;;20.42;12.15;;;;;;;4.23;100.00;102946.84;5023333;28;20048;-60
2021/03/30 04:10:44;;;;;;;20.75;11.38;;;;;;;4.19;100.00;102958.50;5025667;28;20056;-61
2021/03/30 04:13:11;;;;;;;23.98;11.88;;;;;;;4.14;100.00;102963.13;5032409;28;20049;-60
2021/03/30 04:15:37;;;;;;;22.60;11.30;;;;;;;4.13;100.00;102964.03;5042239;28;20094;-61
2021/03/30 04:18:05;;;;;;;22.65;11.90;;;;;;;4.01;100.00;102960.75;5045637;28;20063;-61
2021/03/30 04:20:32;;;;;;;25.02;13.40;;;;;;;4.05;100.00;102966.91;5047281;28;20054;-62
2021/03/30 04:22:59;;;;;;;22.65;12.07;;;;;;;4.23;100.00;102975.31;5040690;28;20052;-60
2021/03/30 04:25:26;;;;;;;23.55;12.80;;;;;;;4.18;100.00;102967.41;5046322;28;20055;-61
2021/03/30 04:27:52;;;;;;;24.27;12.80;;;;;;;4.10;100.00;102975.63;5040534;28;20052;-60
2021/03/30 04:30:20;;;;;;;20.02;12.75;;;;;;;4.00;100.00;102968.81;5049037;28;20049;-61
2021/03/30 04:32:46;;;;;;;24.70;11.77;;;;;;;3.81;100.00;102977.28;5044975;28;20048;-60
2021/03/30 04:35:13;;;;;;;24.77;11.95;;;;;;;3.74;100.00;102981.03;5041707;28;20049;-60
2021/03/30 04:37:40;;;;;;;26.00;12.95;;;;;;;3.78;100.00;102977.34;5043564;28;20103;-60
2021/03/30 04:40:09;;;;;;;24.05;13.23;;;;;;;3.82;100.00;102981.69;5038587;28;20401;-59
2021/03/30 04:42:35;;;;;;;27.52;12.95;;;;;;;3.85;100.00;102983.41;5051014;28;20044;-62
2021/03/30 04:45:01;;;;;;;20.85;13.38;;;;;;;3.84;100.00;102979.88;5043769;28;20071;-60
2021/03/30 04:47:27;;;;;;;26.45;13.55;;;;;;;3.91;100.00;102974.38;5053028;28;20056;-60
2021/03/30 04:49:53;;;;;;;26.92;13.82;;;;;;;3.85;100.00;102978.09;5050362;28;20063;-62
2021/03/30 04:52:19;;;;;;;26.05;14.82;;;;;;;3.78;100.00;102980.00;5046504;28;20045;-62
2021/03/30 04:54:45;;;;;;;27.17;14.13;;;;;;;3.63;100.00;102991.06;5047640;28;20047;-59
2021/03/30 04:57:12;;;;;;;28.65;13.98;;;;;;;3.50;100.00;102996.72;5049999;28;20053;-60
2021/03/30 04:59:38;;;;;;;24.50;13.85;;;;;;;3.49;100.00;102994.97;5049089;28;20378;-60
2021/03/30 05:02:04;;;;;;;25.73;13.77;;;;;;;3.45;100.00;103011.91;5042691;28;20141;-59
2021/03/30 05:04:30;;;;;;;25.60;14.30;;;;;;;3.41;100.00;103007.56;5050979;28;21303;-61
2021/03/30 05:06:56;;;;;;;25.80;14.30;;;;;;;3.38;100.00;103017.41;5041745;28;20060;-61
2021/03/30 05:09:22;;;;;;;26.95;13.45;;;;;;;3.36;100.00;103012.13;5043922;28;20144;-59
2021/03/30 05:11:48;;;;;;;26.42;15.20;;;;;;;3.43;100.00;103023.50;5039519;28;21340;-60
2021/03/30 05:14:15;;;;;;;28.15;15.48;;;;;;;3.49;100.00;103021.59;5038349;28;20068;-59
2021/03/30 05:16:41;;;;;;;31.95;17.15;;;;;;;3.62;100.00;103021.28;5022697;28;20076;-60
2021/03/30 05:19:07;;;;;;;32.58;15.10;;;;;;;3.56;100.00;103014.31;5027666;28;21797;-60
2021/03/30 05:21:33;;;;;;;27.45;15.27;;;;;;;3.47;100.00;103023.38;5028590;28;20053;-61
2021/03/30 05:23:59;;;;;;;31.27;16.00;;;;;;;3.40;100.00;103015.59;5029267;28;20418;-62
2021/03/30 05:26:25;;;;;;;30.17;14.90;;;;;;;3.28;100.00;103016.75;5024126;28;20063;-60
2021/03/30 05:28:51;;;;;;;32.95;16.30;;;;;;;3.26;100.00;103021.25;5028198;28;20407;-61
2021/03/30 05:31:18;;;;;;;30.70;17.70;;;;;;;3.33;100.00;103023.72;5027974;28;21259;-60
2021/03/30 05:33:44;;;;;;;29.13;15.88;;;;;;;3.40;100.00;103021.81;5027639;28;20547;-62
2021/03/30 05:36:10;;;;;;;29.48;15.85;;;;;;;3.40;100.00;103023.56;5023015;28;20049;-60
2021/03/30 05:38:36;;;;;;;29.80;17.15;;;;;;;3.35;100.00;103022.81;5024832;28;20048;-62
2021/03/30 05:41:05;;;;;;;28.08;16.45;;;;;;;3.33;100.00;103020.19;5025631;28;20518;-62
2021/03/30 05:43:31;;;;;;;36.88;17.98;;;;;;;3.30;100.00;103026.47;5029809;28;20420;-60
2021/03/30 05:46:00;;;;;;;35.92;17.95;;;;;;;3.43;100.00;103032.38;5023983;28;20056;-60
2021/03/30 05:48:27;;;;;;;31.88;17.13;;;;;;;3.62;100.00;103021.28;5023647;28;20052;-60
2021/03/30 05:50:53;;;;;;;30.55;16.17;;;;;;;3.72;100.00;103033.44;5024238;28;20445;-60
2021/03/30 05:53:22;;;;;;;35.67;17.45;;;;;;;3.82;100.00;103036.75;5024446;28;20068;-59
2021/03/30 05:55:54;;;;;;;31.33;16.70;;;;;;;3.97;100.00;103032.84;5024476;28;20049;-60
2021/03/30 05:58:22;;;;;;;33.53;18.23;;;;;;;4.15;100.00;103037.69;5025062;28;20399;-62
2021/03/30 06:00:51;;;;;;;36.38;17.35;;;;;;;4.00;100.00;103038.94;5031255;28;20052;-61
2021/03/30 06:03:22;;;;;;;;;;;;;;;4.06;100.00;103042.38;5034049;28;20047;-60
2021/03/30 06:05:52;;;;;;;33.53;16.50;;;;;;;4.06;100.00;103043.25;5037776;28;19920;-61
2021/03/30 06:08:21;;;;;;;33.40;16.00;;;;;;;4.06;100.00;103045.91;5038751;28;20083;-61
2021/03/30 06:10:48;;;;;;;29.23;14.98;;;;;;;4.04;100.00;103053.06;5030477;28;20056;-60
2021/03/30 06:13:14;;;;;;;27.85;15.85;;;;;;;4.38;100.00;103044.19;5036397;28;20425;-61
2021/03/30 06:15:40;;;;;;;31.38;15.70;;;;;;;4.44;100.00;103044.00;5038990;28;20050;-60
2021/03/30 06:18:17;;;;;;;35.70;16.73;;;;;;;4.59;100.00;103044.50;5039116;28;20102;-61
2021/03/30 06:20:43;;;;;;;32.38;16.73;;;;;;;4.81;100.00;103045.63;5036950;28;20061;-60
2021/03/30 06:23:10;;;;;;;29.23;15.93;;;;;;;4.99;100.00;103046.91;5040107;28;20053;-62
2021/03/30 06:25:40;;;;;;;29.27;15.82;;;;;;;5.14;100.00;103042.88;5037076;28;20049;-61
2021/03/30 06:28:16;;;;;;;29.15;16.45;;;;;;;5.25;100.00;103047.88;5037467;28;20053;-62
2021/03/30 06:30:56;;;;;;;32.30;15.68;;;;;;;5.42;100.00;103048.22;5036004;28;20387;-61
2021/03/30 06:33:23;;;;;;;29.50;15.95;;;;;;;5.73;100.00;103038.38;5040237;28;20053;-61
2021/03/30 06:35:49;;;;;;;35.72;16.52;;;;;;;5.96;100.00;103046.47;5040397;28;20052;-62
2021/03/30 06:38:16;;;;;;;28.70;16.05;;;;;;;6.11;100.00;103041.53;5038533;28;20083;-60
2021/03/30 06:40:44;;;;;;;30.50;17.30;;;;;;;6.39;100.00;103048.59;5037564;28;20108;-62
2021/03/30 06:46:06;;;;;;;33.78;17.77;;;;;;;6.74;100.00;103051.78;5037843;28;20085;-61
2021/03/30 06:48:32;;;;;;;31.27;16.48;;;;;;;6.80;100.00;103054.22;5040504;28;20103;-60
2021/03/30 06:51:15;;;;;;;33.22;16.80;;;;;;;6.86;100.00;103059.38;5038608;28;20064;-62
2021/03/30 06:53:42;;;;;;;35.28;17.70;;;;;;;7.09;100.00;103061.16;5029306;28;20114;-62
2021/03/30 06:56:07;;;;;;;38.45;18.52;;;;;;;7.39;100.00;103068.06;5033863;28;20057;-62
2021/03/30 06:58:55;;;;;;;33.47;17.40;;;;;;;7.83;100.00;103060.00;5039423;28;20064;-62
2021/03/30 07:01:22;;;;;;;30.95;17.65;;;;;;;8.11;100.00;103061.53;5037908;28;20081;-62
2021/03/30 07:03:48;;;;;;;30.92;17.48;;;;;;;8.28;100.00;103056.31;5038512;28;20490;-61
2021/03/30 07:06:14;;;;;;;34.75;16.30;;;;;;;8.51;100.00;103055.34;5038883;28;20060;-60
2021/03/30 07:08:42;;;;;;;31.88;16.60;;;;;;;8.72;100.00;103058.00;5040377;28;20049;-61
2021/03/30 07:11:08;;;;;;;30.25;16.52;;;;;;;9.05;100.00;103052.84;5034374;28;20049;-62
2021/03/30 07:13:34;;;;;;;29.75;17.17;;;;;;;9.27;100.00;103054.53;5037929;28;20422;-63
2021/03/30 07:16:02;;;;;;;31.08;16.27;;;;;;;9.49;100.00;103059.75;5034180;28;20112;-61
2021/03/30 07:18:35;;;;;;;31.67;16.85;;;;;;;9.77;100.00;103047.63;5032888;28;20122;-62
2021/03/30 07:21:03;;;;;;;29.25;16.20;;;;;;;9.78;100.00;103050.22;5032510;28;20083;-62
2021/03/30 07:23:32;;;;;;;45.97;17.05;;;;;;;9.98;100.00;103061.78;5033276;28;20050;-62
2021/03/30 07:26:06;;;;;;;34.80;18.83;;;;;;;10.04;100.00;103050.75;5036322;28;20071;-62
2021/03/30 07:28:36;;;;;;;34.85;16.90;;;;;;;10.16;100.00;103058.16;5036919;28;20049;-62
2021/03/30 07:31:05;;;;;;;33.95;17.88;;;;;;;10.40;100.00;103060.56;5028407;28;20053;-64
2021/03/30 07:33:38;;;;;;;29.38;16.60;;;;;;;10.50;100.00;103055.56;5037267;28;20053;-62
2021/03/30 07:36:05;;;;;;;30.80;16.83;;;;;;;10.63;100.00;103051.28;5036816;28;20053;-63
2021/03/30 07:38:49;;;;;;;30.98;17.67;;;;;;;10.90;94.27;103058.78;5036646;28;20056;-62
2021/03/30 07:41:19;;;;;;;32.47;17.58;;;;;;;10.94;93.03;103057.69;5036604;28;20434;-62
2021/03/30 07:43:48;;;;;;;30.65;17.50;;;;;;;11.07;94.08;103057.00;5037268;28;20098;-62
2021/03/30 07:46:15;;;;;;;28.38;16.63;;;;;;;11.20;92.61;103064.31;5036857;28;20115;-62
2021/03/30 07:51:10;;;;;;;27.60;15.82;;;;;;;11.42;89.32;103055.00;5069671;22;20127;-62
2021/03/30 07:53:41;;;;;;;28.55;15.63;;;;;;;11.73;87.19;103062.22;5079864;28;20051;-62
2021/03/30 07:56:08;;;;;;;26.20;15.25;;;;;;;11.94;84.28;103053.84;5078396;28;20110;-63
2021/03/30 07:58:42;;;;;;;25.13;14.40;;;;;;;11.94;79.67;103063.75;5079675;28;20049;-62
2021/03/30 08:01:09;;;;;;;23.23;14.60;;;;;;;12.02;78.35;103064.16;5077399;28;20049;-64
2021/03/30 08:03:37;;;;;;;24.02;13.70;;;;;;;12.04;76.96;103064.94;5078483;28;20474;-62
2021/03/30 08:06:07;;;;;;;24.60;13.82;;;;;;;12.19;75.22;103064.03;5078434;28;20055;-63
2021/03/30 08:08:48;;;;;;;20.98;12.70;;;;;;;12.24;73.71;103061.91;5077026;28;20051;-62
2021/03/30 08:11:15;;;;;;;25.85;13.45;;;;;;;12.44;71.17;103066.09;5078137;28;20529;-64
2021/03/30 08:13:50;;;;;;;22.00;13.77;;;;;;;12.40;71.86;103069.94;5077695;28;20098;-62
2021/03/30 08:16:18;;;;;;;24.65;13.73;;;;;;;12.40;72.76;103067.25;5077511;28;20040;-62
2021/03/30 08:18:46;;;;;;;23.23;13.65;;;;;;;12.47;73.06;103067.75;5077215;28;20554;-62
2021/03/30 08:21:14;;;;;;;27.23;13.52;;;;;;;12.59;71.30;103061.59;5079514;28;20051;-64
2021/03/30 08:24:09;;;;;;;22.27;12.63;;;;;;;12.80;70.25;103063.91;5081186;28;20500;-62
2021/03/30 08:26:38;;;;;;;21.13;11.50;;;;;;;12.83;64.84;103063.72;5080194;28;20417;-62
2021/03/30 08:29:08;;;;;;;20.02;11.75;;;;;;;13.04;65.85;103068.72;5078748;28;20606;-62
2021/03/30 08:31:36;;;;;;;19.98;11.57;;;;;;;13.02;63.45;103067.97;5080387;28;20052;-62
2021/03/30 08:34:04;;;;;;;15.88;10.68;;;;;;;13.07;63.72;103071.22;5079724;28;20133;-62
2021/03/30 08:36:33;;;;;;;22.92;12.30;;;;;;;13.22;65.12;103074.78;5079455;28;20048;-62
2021/03/30 08:39:08;;;;;;;23.43;12.57;;;;;;;13.38;64.67;103072.84;5083123;28;20052;-62
2021/03/30 08:42:07;;;;;;;20.30;11.77;;;;;;;13.47;63.38;103074.06;5079883;28;20286;-62
2021/03/30 08:44:38;;;;;;;;;;;;;;;13.53;62.66;103076.41;5083240;28;20079;-62
2021/03/30 08:47:06;;;;;;;22.77;11.90;;;;;;;13.55;62.31;103079.88;5081700;28;20340;-62
2021/03/30 08:49:35;;;;;;;21.98;11.52;;;;;;;13.83;61.40;103080.75;5082342;28;20044;-62
2021/03/30 08:52:05;;;;;;;19.63;11.48;;;;;;;13.86;57.50;103085.09;5082145;28;20112;-63
2021/03/30 08:54:33;;;;;;;17.45;10.82;;;;;;;13.93;59.89;103086.41;5081171;28;20049;-60
2021/03/30 08:57:02;;;;;;;18.50;11.20;;;;;;;13.91;61.06;103085.63;5082274;28;20052;-62
2021/03/30 08:59:29;;;;;;;26.55;12.07;;;;;;;14.15;61.71;103088.53;5085704;22;20052;-61
2021/03/30 09:01:57;;;;;;;22.73;12.52;;;;;;;14.16;62.87;103084.81;5043715;28;20083;-63
2021/03/30 09:04:25;;;;;;;17.67;10.80;;;;;;;14.13;56.71;103093.16;5040863;28;20491;-62
2021/03/30 09:06:54;;;;;;;18.98;10.32;;;;;;;14.28;58.32;103086.72;5041869;28;20503;-62
2021/03/30 09:09:21;;;;;;;16.10;9.45;;;;;;;14.49;52.65;103080.78;5039443;28;20052;-62
2021/03/30 09:11:48;;;;;;;17.88;10.48;;;;;;;14.69;49.64;103077.56;5039299;28;20049;-63
2021/03/30 09:14:17;;;;;;;22.08;10.07;;;;;;;14.73;51.11;103082.75;5042258;28;20478;-63
2021/03/30 09:16:44;;;;;;;17.05;10.35;;;;;;;14.87;52.24;103083.50;5043432;28;20131;-63
2021/03/30 09:19:27;;;;;;;20.92;11.38;;;;;;;14.94;54.54;103077.63;5040989;28;20045;-63
2021/03/30 09:22:00;;;;;;;24.05;10.32;;;;;;;15.30;53.37;103078.66;5041781;28;20055;-64
2021/03/30 09:27:11;;;;;;;17.58;10.55;;;;;;;15.47;51.10;103071.97;5038144;28;20064;-61
2021/03/30 09:29:38;;;;;;;17.08;10.38;;;;;;;15.60;50.59;103080.94;5040075;28;20401;-61
2021/03/30 09:32:06;;;;;;;15.05;9.15;;;;;;;15.74;46.05;103071.78;5037916;28;20056;-62
2021/03/30 09:34:33;;;;;;;19.17;8.77;;;;;;;15.87;44.80;103071.72;5041119;28;20057;-63
2021/03/30 09:37:00;;;;;;;15.45;8.63;;;;;;;16.09;42.17;103073.66;5040602;28;20065;-63
2021/03/30 09:39:28;;;;;;;14.57;9.23;;;;;;;15.96;41.76;103068.31;5040121;28;20076;-61
2021/03/30 09:41:55;;;;;;;14.43;8.88;;;;;;;16.14;38.38;103063.31;5040801;28;20060;-63
2021/03/30 09:44:23;;;;;;;16.65;9.02;;;;;;;15.94;37.53;103067.53;5040780;28;20056;-62
2021/03/30 09:46:52;;;;;;;15.88;8.88;;;;;;;16.03;37.91;103076.84;5038201;28;20055;-62
2021/03/30 09:49:21;;;;;;;18.52;9.10;;;;;;;16.28;38.62;103059.50;5039869;28;20140;-62
2021/03/30 09:51:48;;;;;;;13.20;8.38;;;;;;;16.25;37.58;103073.34;5040203;28;20053;-63
2021/03/30 09:54:23;;;;;;;17.27;8.05;;;;;;;16.52;36.89;103066.72;5038148;28;20075;-63
2021/03/30 09:56:59;;;;;;;14.43;8.65;;;;;;;16.52;36.75;103069.44;5038542;28;20462;-62
2021/03/30 09:59:25;;;;;;;15.43;8.85;;;;;;;16.53;39.20;103063.88;5038625;28;20059;-62
2021/03/30 10:01:51;;;;;;;17.48;9.50;;;;;;;17.12;40.11;103059.22;5038376;28;20046;-63
2021/03/30 10:04:17;;;;;;;18.80;9.90;;;;;;;16.94;41.99;103062.44;5039458;28;20069;-63
2021/03/30 10:06:43;;;;;;;15.07;9.70;;;;;;;17.12;43.89;103060.09;5039947;28;20544;-62
2021/03/30 10:09:10;;;;;;;19.33;10.65;;;;;;;17.00;43.37;103066.53;5040705;28;20060;-62
2021/03/30 10:11:36;;;;;;;19.30;11.25;;;;;;;17.30;43.70;103062.31;5039677;28;20118;-61
2021/03/30 10:14:19;;;;;;;16.90;10.32;;;;;;;17.61;41.68;103062.47;5040753;28;20045;-63
2021/03/30 10:16:46;;;;;;;20.08;9.82;;;;;;;17.75;39.01;103055.84;5039369;28;20068;-62
2021/03/30 10:19:13;;;;;;;15.95;8.90;;;;;;;17.56;39.21;103056.53;5040636;28;20045;-61
2021/03/30 10:21:39;;;;;;;15.75;8.80;;;;;;;17.75;34.85;103053.97;5040728;28;20156;-62
2021/03/30 10:24:15;;;;;;;16.15;8.95;;;;;;;17.98;35.05;103048.50;5040302;28;20053;-61
2021/03/30 10:26:42;;;;;;;13.63;7.65;;;;;;;17.97;31.51;103044.03;5040468;28;20393;-61
2021/03/30 10:29:14;;;;;;;16.00;7.97;;;;;;;18.26;34.75;103043.38;5039685;28;20054;-63
2021/03/30 10:31:44;;;;;;;11.65;7.75;;;;;;;18.34;32.30;103040.84;5039674;28;20045;-62
2021/03/30 10:34:24;;;;;;;11.68;6.40;;;;;;;18.50;30.87;103049.38;5039842;28;20052;-62
2021/03/30 10:36:51;;;;;;;9.23;6.07;;;;;;;18.57;30.95;103049.72;5041273;28;20194;-64
2021/03/30 10:39:26;;;;;;;12.43;7.10;;;;;;;18.90;32.24;103047.75;5038115;28;20057;-62
2021/03/30 10:42:00;;;;;;;19.20;7.20;;;;;;;18.82;32.32;103039.38;5040036;28;20487;-62
2021/03/30 10:44:33;;;;;;;11.38;6.45;;;;;;;18.69;31.34;103035.00;5038760;28;20052;-62
2021/03/30 10:46:59;;;;;;;10.07;6.55;;;;;;;18.68;33.22;103040.59;5037422;28;20131;-62
2021/03/30 10:49:25;;;;;;;9.50;6.00;;;;;;;18.51;31.22;103047.53;5039677;28;20449;-65
2021/03/30 10:51:51;;;;;;;11.32;7.25;;;;;;;18.54;33.65;103033.63;5039472;28;20128;-62
2021/03/30 10:54:20;;;;;;;10.80;7.15;;;;;;;18.49;31.94;103033.16;5038795;28;20045;-62
2021/03/30 10:56:46;;;;;;;;;;;;;;;18.85;33.50;103029.03;5039970;28;20124;-64
2021/03/30 10:59:15;;;;;;;11.45;7.95;;;;;;;19.05;31.42;103032.72;5038811;28;20333;-60
2021/03/30 11:01:41;;;;;;;11.02;7.65;;;;;;;19.08;34.70;103034.31;5039768;28;20124;-63
2021/03/30 11:04:08;;;;;;;10.07;7.45;;;;;;;19.00;32.65;103034.16;5033943;28;20061;-62
2021/03/30 11:06:35;;;;;;;15.35;8.25;;;;;;;18.87;32.84;103027.06;5039821;28;20048;-64
2021/03/30 11:09:01;;;;;;;14.68;7.82;;;;;;;19.22;34.16;103019.41;5036941;28;20126;-63
2021/03/30 11:11:28;;;;;;;12.68;8.18;;;;;;;19.50;34.30;103020.44;5036901;28;20049;-62
2021/03/30 11:13:54;;;;;;;11.65;8.43;;;;;;;19.46;34.36;103020.88;5038063;28;20053;-62
2021/03/30 11:16:20;;;;;;;16.55;8.13;;;;;;;19.42;35.15;103020.31;5037712;28;20098;-61
2021/03/30 11:18:46;;;;;;;12.95;7.80;;;;;;;19.49;34.85;103013.25;5036901;28;20052;-61
2021/03/30 11:21:12;;;;;;;14.75;8.68;;;;;;;19.54;36.07;103010.97;5037011;28;20053;-61
2021/03/30 11:23:40;;;;;;;12.60;8.38;;;;;;;19.61;36.28;103011.28;5038177;28;20140;-61
2021/03/30 11:26:07;;;;;;;12.25;8.40;;;;;;;19.33;35.39;102996.56;5037284;28;20059;-62
2021/03/30 11:28:37;;;;;;;13.70;8.50;;;;;;;19.55;34.67;102999.03;5037656;28;20057;-62
2021/03/30 11:31:06;;;;;;;15.15;8.32;;;;;;;19.54;34.68;102996.47;5036284;28;20091;-63